createdAt,value
2023-05-17T00:01:01.487Z,114.43
2023-05-17T00:03:29.206Z,130.30
2023-05-17T00:05:57.035Z,128.90
2023-05-17T00:08:24.491Z,123.72
2023-05-17T00:10:52.620Z,119.63
2023-05-17T00:13:19.983Z,110.93
2023-05-17T00:15:47.549Z,115.75
2023-05-17T00:18:14.976Z,129.50
2023-05-17T00:20:42.779Z,125.20
2023-05-17T00:23:10.154Z,126.55
2023-05-17T00:25:37.632Z,131.98
2023-05-17T00:28:05.436Z,120.15
2023-05-17T00:30:33.357Z,122.47
2023-05-17T00:33:00.832Z,113.70
2023-05-17T00:35:28.737Z,112.07
2023-05-17T00:37:56.352Z,117.15
2023-05-17T00:40:23.923Z,114.13
2023-05-17T00:42:51.311Z,107.75
2023-05-17T00:45:18.805Z,113.88
2023-05-17T00:47:46.191Z,94.93
2023-05-17T00:50:14.384Z,101.82
2023-05-17T00:52:41.602Z,93.65
2023-05-17T00:55:09.394Z,89.88
2023-05-17T00:57:36.831Z,93.70
2023-05-17T01:00:04.930Z,99.22
2023-05-17T01:02:33.252Z,99.35
2023-05-17T01:05:01.329Z,89.15
2023-05-17T01:07:29.236Z,95.55
2023-05-17T01:09:57.076Z,92.82
2023-05-17T01:12:40.625Z,93.97
2023-05-17T01:15:26.764Z,91.55
2023-05-17T01:17:56.938Z,92.68
2023-05-17T01:20:36.458Z,91.07
2023-05-17T01:23:22.354Z,87.38
2023-05-17T01:26:10.761Z,92.05
2023-05-17T01:28:38.969Z,84.57
2023-05-17T01:31:09.384Z,93.88
2023-05-17T01:33:39.040Z,92.80
2023-05-17T01:36:09.049Z,88.85
2023-05-17T01:38:36.379Z,76.88
2023-05-17T01:41:07.032Z,83.13
2023-05-17T01:43:57.776Z,74.88
2023-05-17T01:46:33.163Z,85.00
2023-05-17T01:49:09.382Z,78.50
2023-05-17T01:52:08.932Z,89.68
2023-05-17T01:54:47.233Z,91.43
2023-05-17T01:57:16.481Z,92.88
2023-05-17T01:59:45.598Z,82.55
2023-05-17T02:02:14.005Z,94.57
2023-05-17T02:04:41.545Z,83.82
2023-05-17T02:07:09.241Z,87.15
2023-05-17T02:09:36.567Z,82.95
2023-05-17T02:12:04.370Z,98.72
2023-05-17T02:14:31.721Z,79.38
2023-05-17T02:16:59.358Z,94.70
2023-05-17T02:19:26.802Z,75.95
2023-05-17T02:21:54.389Z,72.65
2023-05-17T02:24:22.892Z,72.40
2023-05-17T02:26:50.674Z,73.40
2023-05-17T02:29:17.984Z,86.47
2023-05-17T02:31:46.168Z,81.75
2023-05-17T02:34:13.611Z,76.80
2023-05-17T02:36:41.237Z,78.30
2023-05-17T02:39:08.516Z,66.60
2023-05-17T02:41:36.155Z,79.05
2023-05-17T02:44:03.394Z,88.32
2023-05-17T02:46:31.242Z,75.47
2023-05-17T02:48:58.739Z,79.22
2023-05-17T02:51:26.545Z,74.68
2023-05-17T02:53:53.895Z,77.53
2023-05-17T02:56:21.438Z,87.20
2023-05-17T02:58:48.815Z,85.03
2023-05-17T03:01:16.477Z,78.50
2023-05-17T03:03:44.003Z,82.45
2023-05-17T03:06:11.902Z,77.72
2023-05-17T03:08:40.368Z,69.65
2023-05-17T03:11:08.704Z,56.80
2023-05-17T03:13:36.123Z,77.30
2023-05-17T03:16:04.058Z,59.78
2023-05-17T03:18:31.784Z,70.68
2023-05-17T03:20:59.603Z,66.10
2023-05-17T03:23:27.273Z,77.68
2023-05-17T03:25:59.875Z,75.88
2023-05-17T03:28:29.334Z,75.65
2023-05-17T03:30:57.261Z,86.88
2023-05-17T03:33:26.732Z,87.75
2023-05-17T03:35:54.527Z,81.32
2023-05-17T03:38:21.798Z,70.95
2023-05-17T03:40:49.413Z,75.28
2023-05-17T03:43:17.494Z,73.57
2023-05-17T03:45:45.299Z,66.60
2023-05-17T03:48:12.710Z,72.18
2023-05-17T03:50:43.236Z,74.50
2023-05-17T03:53:10.803Z,72.35
2023-05-17T03:55:39.433Z,70.80
2023-05-17T03:58:07.475Z,64.97
2023-05-17T04:00:35.040Z,63.80
2023-05-17T04:03:07.746Z,66.70
2023-05-17T04:05:35.453Z,76.88
2023-05-17T04:08:02.821Z,67.78
2023-05-17T04:10:30.938Z,78.35
2023-05-17T04:12:58.337Z,77.10
2023-05-17T04:15:26.630Z,78.97
2023-05-17T04:17:54.114Z,67.10
2023-05-17T04:20:22.088Z,65.40
2023-05-17T04:22:49.806Z,60.83
2023-05-17T04:25:18.516Z,58.50
2023-05-17T04:27:46.420Z,50.47
2023-05-17T04:30:15.052Z,49.80
2023-05-17T04:32:43.412Z,43.28
2023-05-17T04:35:11.096Z,47.35
2023-05-17T04:37:40.407Z,48.83
2023-05-17T04:40:17.917Z,42.22
2023-05-17T04:42:46.493Z,43.30
2023-05-17T04:45:15.584Z,41.05
2023-05-17T04:47:43.890Z,40.55
2023-05-17T04:50:12.547Z,41.08
2023-05-17T04:52:40.124Z,36.15
2023-05-17T04:55:09.635Z,37.13
2023-05-17T04:57:37.731Z,31.52
2023-05-17T05:00:07.359Z,32.55
2023-05-17T05:02:36.125Z,27.20
2023-05-17T05:05:05.239Z,29.88
2023-05-17T05:07:33.328Z,28.55
2023-05-17T05:10:01.349Z,27.08
2023-05-17T05:12:29.415Z,25.73
2023-05-17T05:14:57.444Z,26.90
2023-05-17T05:17:26.165Z,24.33
2023-05-17T05:19:54.441Z,25.10
2023-05-17T05:22:21.935Z,29.77
2023-05-17T05:24:49.466Z,21.42
2023-05-17T05:27:17.016Z,25.15
2023-05-17T05:29:44.558Z,21.88
2023-05-17T05:32:12.142Z,21.83
2023-05-17T05:34:44.999Z,18.65
2023-05-17T05:37:12.305Z,18.27
2023-05-17T05:39:39.943Z,25.98
2023-05-17T05:42:07.941Z,19.65
2023-05-17T05:44:35.746Z,25.95
2023-05-17T05:47:06.414Z,30.02
2023-05-17T05:49:33.896Z,28.48
2023-05-17T05:52:01.196Z,23.92
2023-05-17T05:54:31.239Z,22.77
2023-05-17T05:57:00.875Z,26.35
2023-05-17T05:59:28.547Z,32.42
2023-05-17T06:01:57.970Z,26.88
2023-05-17T06:04:33.097Z,32.65
2023-05-17T06:07:08.422Z,26.17
2023-05-17T06:09:36.035Z,32.05
2023-05-17T06:12:03.575Z,32.50
2023-05-17T06:14:31.225Z,25.55
2023-05-17T06:16:58.664Z,37.67
2023-05-17T06:19:26.382Z,35.53
2023-05-17T06:21:53.981Z,38.58
2023-05-17T06:24:21.490Z,35.30
2023-05-17T06:26:48.829Z,43.95
2023-05-17T06:29:16.372Z,36.63
2023-05-17T06:31:43.653Z,28.25
2023-05-17T06:34:11.356Z,44.45
2023-05-17T06:36:41.681Z,40.55
2023-05-17T06:39:09.202Z,32.70
2023-05-17T06:41:36.674Z,57.38
2023-05-17T06:44:04.334Z,44.50
2023-05-17T06:46:31.547Z,46.25
2023-05-17T06:48:59.265Z,45.38
2023-05-17T06:51:26.750Z,42.33
2023-05-17T06:53:54.497Z,40.75
2023-05-17T06:56:22.453Z,32.90
2023-05-17T06:58:50.467Z,43.83
2023-05-17T07:01:17.762Z,32.50
2023-05-17T07:03:45.480Z,39.65
2023-05-17T07:06:13.181Z,40.85
2023-05-17T07:08:40.738Z,37.03
2023-05-17T07:11:08.151Z,33.47
2023-05-17T07:13:36.132Z,34.15
2023-05-17T07:16:03.543Z,47.85
2023-05-17T07:18:31.388Z,35.90
2023-05-17T07:20:58.896Z,40.60
2023-05-17T07:23:26.462Z,42.33
2023-05-17T07:25:53.704Z,40.80
2023-05-17T07:28:21.336Z,42.92
2023-05-17T07:30:48.650Z,34.15
2023-05-17T07:33:16.399Z,25.52
2023-05-17T07:35:43.692Z,25.42
2023-05-17T07:38:11.436Z,33.47
2023-05-17T07:40:38.770Z,28.20
2023-05-17T07:43:06.786Z,28.10
2023-05-17T07:45:34.197Z,35.13
2023-05-17T07:48:03.972Z,29.55
2023-05-17T07:50:32.532Z,23.45
2023-05-17T07:53:00.251Z,29.80
2023-05-17T07:55:27.763Z,24.30
2023-05-17T07:57:55.607Z,25.15
2023-05-17T08:00:24.056Z,26.67
2023-05-17T08:02:51.657Z,31.58
2023-05-17T08:05:19.091Z,37.50
2023-05-17T08:07:46.733Z,25.73
2023-05-17T08:10:14.024Z,24.10
2023-05-17T08:12:41.604Z,23.45
2023-05-17T08:15:09.599Z,25.70
2023-05-17T08:17:37.275Z,30.02
2023-05-17T08:20:08.044Z,27.33
2023-05-17T08:22:36.536Z,21.33
2023-05-17T08:25:04.905Z,25.90
2023-05-17T08:27:33.072Z,30.70
2023-05-17T08:30:00.658Z,25.38
2023-05-17T08:32:28.551Z,21.40
2023-05-17T08:34:56.420Z,21.90
2023-05-17T08:37:24.477Z,19.77
2023-05-17T08:39:51.978Z,17.73
2023-05-17T08:42:25.352Z,23.23
2023-05-17T08:44:54.820Z,21.30
2023-05-17T08:47:33.254Z,12.30
2023-05-17T08:50:01.116Z,15.60
2023-05-17T08:52:31.216Z,11.50
2023-05-17T08:55:01.252Z,26.08
2023-05-17T08:57:31.602Z,10.10
2023-05-17T09:00:01.095Z,10.23
2023-05-17T09:02:31.216Z,16.42
2023-05-17T09:05:00.188Z,8.93
2023-05-17T09:07:27.590Z,9.93
2023-05-17T09:09:55.771Z,15.50
2023-05-17T09:12:25.547Z,12.75
2023-05-17T09:14:53.414Z,12.02
2023-05-17T09:17:21.636Z,6.03
2023-05-17T09:19:50.438Z,7.85
2023-05-17T09:22:21.514Z,10.10
2023-05-17T09:24:50.391Z,13.18
2023-05-17T09:27:18.885Z,14.77
2023-05-17T09:29:46.741Z,7.10
2023-05-17T09:32:20.607Z,14.63
2023-05-17T09:34:49.103Z,11.93
2023-05-17T09:37:19.982Z,4.97
2023-05-17T09:39:48.516Z,8.10
2023-05-17T09:42:17.032Z,7.07
2023-05-17T09:45:00.016Z,11.32
2023-05-17T09:47:29.563Z,7.75
2023-05-17T09:49:58.407Z,9.52
2023-05-17T09:52:26.956Z,9.68
2023-05-17T09:54:56.413Z,12.65
2023-05-17T09:57:26.808Z,8.40
2023-05-17T09:59:57.437Z,11.10
2023-05-17T10:02:35.416Z,14.32
2023-05-17T10:05:05.463Z,9.75
2023-05-17T10:07:34.649Z,13.90
2023-05-17T10:10:03.000Z,15.63
2023-05-17T10:12:35.330Z,12.98
2023-05-17T10:15:05.096Z,8.07
2023-05-17T10:17:35.917Z,10.07
2023-05-17T10:20:06.869Z,12.55
2023-05-17T10:22:35.141Z,10.05
2023-05-17T10:25:03.228Z,13.52
2023-05-17T10:27:31.169Z,17.67
2023-05-17T10:29:58.965Z,11.93
2023-05-17T10:32:28.772Z,10.98
2023-05-17T10:35:09.134Z,11.18
2023-05-17T10:37:40.574Z,15.00
2023-05-17T10:40:13.572Z,19.35
2023-05-17T10:42:50.949Z,9.93
2023-05-17T10:45:23.750Z,10.38
2023-05-17T10:47:52.726Z,6.45
2023-05-17T10:50:27.495Z,7.43
2023-05-17T10:52:58.149Z,9.65
2023-05-17T10:55:41.254Z,10.38
2023-05-17T10:58:20.668Z,8.82
2023-05-17T11:00:55.538Z,5.97
2023-05-17T11:03:30.206Z,8.77
2023-05-17T11:06:24.733Z,8.98
2023-05-17T11:09:14.943Z,29.13
2023-05-17T11:12:11.468Z,26.10
2023-05-17T11:14:48.670Z,12.80
2023-05-17T11:17:21.706Z,13.93
2023-05-17T11:19:52.768Z,14.25
2023-05-17T11:22:27.782Z,12.77
2023-05-17T11:24:58.024Z,12.15
2023-05-17T11:27:28.893Z,10.40
2023-05-17T11:29:57.543Z,9.93
2023-05-17T11:32:29.358Z,9.82
2023-05-17T11:34:59.722Z,7.78
2023-05-17T11:37:28.973Z,10.30
2023-05-17T11:40:08.424Z,12.60
2023-05-17T11:42:38.181Z,8.52
2023-05-17T11:45:06.726Z,18.10
2023-05-17T11:47:38.735Z,10.93
2023-05-17T11:50:07.915Z,6.60
2023-05-17T11:52:35.657Z,16.77
2023-05-17T11:55:04.165Z,14.45
2023-05-17T11:57:32.600Z,17.98
2023-05-17T12:00:05.633Z,9.40
2023-05-17T12:02:42.066Z,10.20
2023-05-17T12:05:09.635Z,12.85
2023-05-17T12:07:37.740Z,9.98
2023-05-17T12:10:06.538Z,12.13
2023-05-17T12:12:34.492Z,20.75
2023-05-17T12:15:02.011Z,15.57
2023-05-17T12:17:42.254Z,16.58
2023-05-17T12:20:10.983Z,11.77
2023-05-17T12:22:55.663Z,14.70
2023-05-17T12:25:25.836Z,14.70
2023-05-17T12:27:54.736Z,19.75
2023-05-17T12:30:23.985Z,13.07
2023-05-17T12:32:51.830Z,15.35
2023-05-17T12:35:19.428Z,14.55
2023-05-17T12:37:47.277Z,19.55
2023-05-17T12:40:14.906Z,24.80
2023-05-17T12:42:43.919Z,17.23
2023-05-17T12:45:13.177Z,15.35
2023-05-17T12:47:40.944Z,13.93
2023-05-17T12:50:08.428Z,17.67
2023-05-17T12:52:36.923Z,15.38
2023-05-17T12:55:05.024Z,19.92
2023-05-17T12:57:33.187Z,17.17
2023-05-17T13:00:07.963Z,14.20
2023-05-17T13:02:36.088Z,14.75
2023-05-17T13:05:15.299Z,20.48
2023-05-17T13:07:42.877Z,21.40
2023-05-17T13:10:27.785Z,20.70
2023-05-17T13:13:01.027Z,18.95
2023-05-17T13:15:34.258Z,19.20
2023-05-17T13:18:14.819Z,23.67
2023-05-17T13:20:43.267Z,19.05
2023-05-17T13:23:11.116Z,16.48
2023-05-17T13:25:39.522Z,21.77
2023-05-17T13:28:07.064Z,20.13
2023-05-17T13:30:40.065Z,22.30
2023-05-17T13:33:07.848Z,23.25
2023-05-17T13:35:35.446Z,18.65
2023-05-17T13:38:03.068Z,23.45
2023-05-17T13:40:30.555Z,25.70
2023-05-17T13:42:58.099Z,25.30
2023-05-17T13:45:25.779Z,18.85
2023-05-17T13:47:53.595Z,14.05
2023-05-17T13:50:21.817Z,45.75
2023-05-17T13:52:49.682Z,20.15
2023-05-17T13:55:17.144Z,18.38
2023-05-17T13:57:45.751Z,23.10
2023-05-17T14:00:13.625Z,26.17
2023-05-17T14:02:41.481Z,22.25
2023-05-17T14:05:10.602Z,30.58
2023-05-17T14:07:42.886Z,25.50
2023-05-17T14:12:41.286Z,15.43
2023-05-17T14:15:10.793Z,18.58
2023-05-17T14:17:38.433Z,21.17
2023-05-17T14:20:06.880Z,19.35
2023-05-17T14:22:34.657Z,19.05
2023-05-17T14:25:02.214Z,22.15
2023-05-17T14:27:30.148Z,20.58
2023-05-17T14:29:57.494Z,17.38
2023-05-17T14:32:25.112Z,18.70
2023-05-17T14:34:52.553Z,18.63
2023-05-17T14:37:21.973Z,21.50
2023-05-17T14:40:05.316Z,13.95
2023-05-17T14:42:34.211Z,16.58
2023-05-17T14:45:01.777Z,17.83
2023-05-17T14:47:36.543Z,28.65
2023-05-17T14:50:04.907Z,20.38
2023-05-17T14:52:32.976Z,15.75
2023-05-17T14:55:00.453Z,23.13
2023-05-17T14:57:33.410Z,24.88
2023-05-17T15:00:01.113Z,25.63
2023-05-17T15:02:29.288Z,17.65
2023-05-17T15:04:57.217Z,23.33
2023-05-17T15:07:25.056Z,18.05
2023-05-17T15:09:52.629Z,11.95
2023-05-17T15:12:20.342Z,20.25
2023-05-17T15:14:47.839Z,23.67
2023-05-17T15:17:15.620Z,20.80
2023-05-17T15:19:43.087Z,24.70
2023-05-17T15:22:10.924Z,17.02
2023-05-17T15:24:39.657Z,13.63
2023-05-17T15:27:08.625Z,17.33
2023-05-17T15:29:38.861Z,12.38
2023-05-17T15:32:07.651Z,21.58
2023-05-17T15:34:35.254Z,18.33
2023-05-17T15:37:03.466Z,16.17
2023-05-17T15:39:30.904Z,21.73
2023-05-17T15:41:58.791Z,21.50
2023-05-17T15:44:26.421Z,13.27
2023-05-17T15:46:54.302Z,18.65
2023-05-17T15:49:21.882Z,17.73
2023-05-17T15:51:53.540Z,17.05
2023-05-17T15:54:20.896Z,21.65
2023-05-17T15:56:48.635Z,16.90
2023-05-17T15:59:16.224Z,23.70
2023-05-17T16:01:46.402Z,12.55
2023-05-17T16:04:13.972Z,15.07
2023-05-17T16:06:41.841Z,19.08
2023-05-17T16:09:09.782Z,17.73
2023-05-17T16:11:39.496Z,15.57
2023-05-17T16:14:11.289Z,17.17
2023-05-17T16:16:45.068Z,15.65
2023-05-17T16:19:13.093Z,23.80
2023-05-17T16:21:49.146Z,21.35
2023-05-17T16:24:19.243Z,15.27
2023-05-17T16:26:49.713Z,12.13
2023-05-17T16:29:18.981Z,11.25
2023-05-17T16:31:48.837Z,16.08
2023-05-17T16:34:19.884Z,19.75
2023-05-17T16:36:48.681Z,17.27
2023-05-17T16:39:17.715Z,12.57
2023-05-17T16:41:46.040Z,12.02
2023-05-17T16:44:14.678Z,29.10
2023-05-17T16:46:42.442Z,15.38
2023-05-17T16:49:09.738Z,10.70
2023-05-17T16:51:37.463Z,14.18
2023-05-17T16:54:04.902Z,17.88
2023-05-17T16:56:32.660Z,17.95
2023-05-17T16:58:59.978Z,13.32
2023-05-17T17:01:27.911Z,14.95
2023-05-17T17:03:56.904Z,13.60
2023-05-17T17:06:24.534Z,16.90
2023-05-17T17:08:51.863Z,25.27
2023-05-17T17:11:23.941Z,34.95
2023-05-17T17:13:51.266Z,19.17
2023-05-17T17:16:20.321Z,20.05
2023-05-17T17:18:49.880Z,15.90
2023-05-17T17:21:17.560Z,11.82
2023-05-17T17:23:44.913Z,20.13
2023-05-17T17:26:13.040Z,16.17
2023-05-17T17:28:41.821Z,17.23
2023-05-17T17:31:09.979Z,15.15
2023-05-17T17:33:40.217Z,22.83
2023-05-17T17:36:09.397Z,15.68
2023-05-17T17:38:37.830Z,16.88
2023-05-17T17:41:05.797Z,22.60
2023-05-17T17:43:33.402Z,12.80
2023-05-17T17:46:00.915Z,19.10
2023-05-17T17:48:28.205Z,21.35
2023-05-17T17:50:59.132Z,18.55
2023-05-17T17:53:27.526Z,21.60
2023-05-17T17:55:55.406Z,15.77
2023-05-17T17:58:22.889Z,17.35
2023-05-17T18:00:51.040Z,23.10
2023-05-17T18:03:18.394Z,24.83
2023-05-17T18:05:46.488Z,20.58
2023-05-17T18:08:13.991Z,16.50
2023-05-17T18:10:41.699Z,16.92
2023-05-17T18:13:09.403Z,13.43
2023-05-17T18:15:36.993Z,19.63
2023-05-17T18:18:04.349Z,17.88
2023-05-17T18:20:32.164Z,16.50
2023-05-17T18:22:59.423Z,24.27
2023-05-17T18:25:27.071Z,21.10
2023-05-17T18:27:54.330Z,20.27
2023-05-17T18:30:21.813Z,21.17
2023-05-17T18:32:49.209Z,25.75
2023-05-17T18:35:16.839Z,18.20
2023-05-17T18:37:44.144Z,19.88
2023-05-17T18:40:14.007Z,28.33
2023-05-17T18:42:41.471Z,22.48
2023-05-17T18:45:09.433Z,25.45
2023-05-17T18:47:36.721Z,33.88
2023-05-17T18:50:04.484Z,32.15
2023-05-17T18:52:31.937Z,36.90
2023-05-17T18:54:59.525Z,41.17
2023-05-17T18:57:26.798Z,32.60
2023-05-17T18:59:54.371Z,43.10
2023-05-17T19:02:21.877Z,34.17
2023-05-17T19:04:50.394Z,33.10
2023-05-17T19:07:17.758Z,32.05
2023-05-17T19:09:46.043Z,26.55
2023-05-17T19:12:13.238Z,22.85
2023-05-17T19:14:41.161Z,26.38
2023-05-17T19:17:10.217Z,23.17
2023-05-17T19:19:37.868Z,20.50
2023-05-17T19:22:05.629Z,26.73
2023-05-17T19:24:33.307Z,29.92
2023-05-17T19:27:00.582Z,25.42
2023-05-17T19:29:28.840Z,24.10
2023-05-17T19:31:56.545Z,22.58
2023-05-17T19:34:24.207Z,18.50
2023-05-17T19:36:51.651Z,18.23
2023-05-17T19:39:19.632Z,14.32
2023-05-17T19:41:47.011Z,20.33
2023-05-17T19:44:14.647Z,13.63
2023-05-17T19:46:42.841Z,23.38
2023-05-17T19:49:11.151Z,17.10
2023-05-17T19:51:38.502Z,17.48
2023-05-17T19:54:06.514Z,18.48
2023-05-17T19:56:33.838Z,21.58
2023-05-17T19:59:03.790Z,14.90
2023-05-17T20:01:31.247Z,22.70
2023-05-17T20:03:59.037Z,22.63
2023-05-17T20:06:26.517Z,17.15
2023-05-17T20:08:54.031Z,20.88
2023-05-17T20:11:21.621Z,14.02
2023-05-17T20:13:49.142Z,21.42
2023-05-17T20:16:16.721Z,22.95
2023-05-17T20:18:45.230Z,17.20
2023-05-17T20:21:20.539Z,23.40
2023-05-17T20:23:48.255Z,20.15
2023-05-17T20:26:25.642Z,18.50
2023-05-17T20:28:53.579Z,17.77
2023-05-17T20:31:21.006Z,13.43
2023-05-17T20:33:48.949Z,19.45
2023-05-17T20:36:16.947Z,19.45
2023-05-17T20:38:44.763Z,17.80
2023-05-17T20:41:14.875Z,20.80
2023-05-17T20:43:46.479Z,19.83
2023-05-17T20:46:14.344Z,15.82
2023-05-17T20:48:43.185Z,17.42
2023-05-17T20:51:10.796Z,20.50
2023-05-17T20:53:39.245Z,21.42
2023-05-17T20:56:07.692Z,17.83
2023-05-17T20:58:35.490Z,17.70
2023-05-17T21:01:02.903Z,12.15
2023-05-17T21:03:34.220Z,21.83
2023-05-17T21:06:02.369Z,19.88
2023-05-17T21:08:33.946Z,14.45
2023-05-17T21:11:01.266Z,15.02
2023-05-17T21:13:28.931Z,20.58
2023-05-17T21:15:56.768Z,18.02
2023-05-17T21:18:24.448Z,18.55
2023-05-17T21:20:52.671Z,13.05
2023-05-17T21:23:20.341Z,21.95
2023-05-17T21:25:49.229Z,23.40
2023-05-17T21:28:16.867Z,21.88
2023-05-17T21:30:44.738Z,11.25
2023-05-17T21:33:12.646Z,21.23
2023-05-17T21:35:40.025Z,16.13
2023-05-17T21:38:08.052Z,24.15
2023-05-17T21:40:35.675Z,20.70
2023-05-17T21:43:03.285Z,18.67
2023-05-17T21:45:30.824Z,17.80
2023-05-17T21:47:58.724Z,20.08
2023-05-17T21:50:26.156Z,28.80
2023-05-17T21:52:53.700Z,18.88
2023-05-17T21:55:20.995Z,32.35
2023-05-17T21:57:48.787Z,21.63
2023-05-17T22:00:16.665Z,15.43
2023-05-17T22:02:45.625Z,13.18
2023-05-17T22:05:13.552Z,17.25
2023-05-17T22:07:41.808Z,19.27
2023-05-17T22:10:10.301Z,15.02
2023-05-17T22:12:38.469Z,9.57
2023-05-17T22:15:06.494Z,19.75
2023-05-17T22:17:43.125Z,12.20
2023-05-17T22:20:17.150Z,17.27
2023-05-17T22:22:44.914Z,18.88
2023-05-17T22:25:12.262Z,17.70
2023-05-17T22:27:40.022Z,17.10
2023-05-17T22:30:07.937Z,17.27
2023-05-17T22:32:37.434Z,18.00
2023-05-17T22:35:05.680Z,13.93
2023-05-17T22:37:34.044Z,13.55
2023-05-17T22:40:01.523Z,19.73
2023-05-17T22:42:29.030Z,14.25
2023-05-17T22:44:56.548Z,15.52
2023-05-17T22:47:26.700Z,13.15
2023-05-17T22:49:54.063Z,11.98
2023-05-17T22:52:21.837Z,11.30
2023-05-17T22:54:49.122Z,14.85
2023-05-17T22:57:17.080Z,8.93
2023-05-17T22:59:44.387Z,9.90
2023-05-17T23:02:12.503Z,10.68
2023-05-17T23:04:40.496Z,10.50
2023-05-17T23:07:10.095Z,7.78
2023-05-17T23:09:41.034Z,11.77
2023-05-17T23:12:13.866Z,13.98
2023-05-17T23:14:41.262Z,20.02
2023-05-17T23:17:09.950Z,9.40
2023-05-17T23:19:37.396Z,19.67
2023-05-17T23:22:06.452Z,15.50
2023-05-17T23:24:38.972Z,22.95
2023-05-17T23:27:10.275Z,20.05
2023-05-17T23:29:37.654Z,10.43
2023-05-17T23:32:05.499Z,17.55
2023-05-17T23:34:33.334Z,22.42
2023-05-17T23:37:00.822Z,10.80
2023-05-17T23:39:28.070Z,16.08
2023-05-17T23:41:55.669Z,16.17
2023-05-17T23:44:22.862Z,13.27
2023-05-17T23:46:53.847Z,13.32
2023-05-17T23:49:21.115Z,19.92
2023-05-17T23:51:48.628Z,15.13
2023-05-17T23:54:16.255Z,10.82
2023-05-17T23:56:43.808Z,11.68
2023-05-17T23:59:12.195Z,14.88
